Todmorden, United Kingdom
Current Conditions -  °F | °C
As of 9:50 AM on Sunday 21 Dec 2014 (Local Time) from EGNM Reporting Station
Drizzle Drizzle  
Wind Chill: 38°   Ceiling: 1000
Heat Index: 43°   Visibility: 4mi
Dew Point: 43°   Wind: 8mph
Humidity: 100%   Direction: 210°SSW
Pressure: 30.12"   Gusts: NA
Location:  53.71°N, 2.1°W
Report Text: EGNM 210950Z 21007KT 170V260 7000 -DZ SCT005 BKN010 06/06 Q1020
Loading
Personal Weather Stations






























Interactive Weather Map New forecast layout! Learn more

10-Day Weather Forecast

Advertisements
Track Severe Weather on mobile